Time;durP1;ratioP1;P1;durP2;ratioP2;P2;SDS_P1;SDS_P2;PMS_P1;PMS_P2;Temp;Humidity;BMP_temperature;BMP_pressure;BME280_temperature;BME280_humidity;BME280_pressure;Samples;Min_cycle;Max_cycle;Signal;HPM_P1;HPM_P2
2022/12/03 00:02:08;;;;;;;13.02;7.55;;;;;;;;;;5110591;28;20031;-56
2022/12/03 00:04:34;;;;;;;13.30;8.05;;;;;;;;;;5110395;28;20028;-57
2022/12/03 00:07:00;;;;;;;15.93;8.02;;;;;;;;;;5110228;28;20479;-55
2022/12/03 00:09:26;;;;;;;14.40;7.90;;;;;;;;;;5110149;28;20026;-55
2022/12/03 00:11:52;;;;;;;14.57;8.30;;;;;;;;;;5110542;28;20479;-56
2022/12/03 00:14:18;;;;;;;15.57;8.85;;;;;;;;;;5110123;28;20032;-56
2022/12/03 00:16:44;;;;;;;13.57;7.53;;;;;;;;;;5110218;28;20034;-56
2022/12/03 00:19:10;;;;;;;16.13;9.68;;;;;;;;;;5110433;28;20026;-57
2022/12/03 00:21:36;;;;;;;16.92;9.55;;;;;;;;;;5108307;27;20106;-56
2022/12/03 00:24:02;;;;;;;14.18;8.13;;;;;;;;;;5106598;28;20028;-56
2022/12/03 00:26:28;;;;;;;14.27;8.15;;;;;;;;;;5095985;28;20023;-57
2022/12/03 00:28:54;;;;;;;14.30;8.95;;;;;;;;;;5102802;28;20519;-54
2022/12/03 00:31:22;;;;;;;14.13;7.72;;;;;;;;;;5107506;28;20039;-56
2022/12/03 00:33:48;;;;;;;11.90;7.22;;;;;;;;;;5109958;28;20411;-57
2022/12/03 00:36:14;;;;;;;12.65;7.45;;;;;;;;;;5108179;28;20032;-56
2022/12/03 00:38:41;;;;;;;13.85;7.93;;;;;;;;;;5107261;28;20503;-57
2022/12/03 00:41:07;;;;;;;14.68;8.18;;;;;;;;;;5089208;28;20032;-56
2022/12/03 00:43:33;;;;;;;15.57;8.55;;;;;;;;;;5089259;28;20479;-57
2022/12/03 00:45:59;;;;;;;12.73;8.15;;;;;;;;;;5089465;28;20032;-56
2022/12/03 00:48:25;;;;;;;15.90;8.48;;;;;;;;;;5087946;28;20028;-56
2022/12/03 00:50:51;;;;;;;13.70;8.25;;;;;;;;;;5089860;28;20035;-56
2022/12/03 00:53:17;;;;;;;16.90;8.95;;;;;;;;;;5089907;28;20028;-56
2022/12/03 00:55:43;;;;;;;14.88;8.57;;;;;;;;;;5108756;28;20044;-56
2022/12/03 00:58:09;;;;;;;15.63;9.00;;;;;;;;;;5106304;28;20054;-56
2022/12/03 01:00:35;;;;;;;15.23;8.35;;;;;;;;;;5088943;28;20036;-57
2022/12/03 01:03:02;;;;;;;12.85;7.50;;;;;;;;;;5089059;28;20027;-57
2022/12/03 06:10:37;;;;;;;;;;;;;;;;;;5102676;28;20095;-55
2022/12/03 06:13:03;;;;;;;14.00;7.75;;;;;;;;;;5111260;28;20396;-55
2022/12/03 06:15:29;;;;;;;13.45;7.50;;;;;;;;;;5111157;28;20084;-55
2022/12/03 06:17:55;;;;;;;13.85;7.63;;;;;;;;;;5108402;28;20056;-55
2022/12/03 06:20:21;;;;;;;10.93;6.93;;;;;;;;;;5090672;28;20518;-56
2022/12/03 06:22:47;;;;;;;13.48;7.22;;;;;;;;;;5100687;28;20086;-54
2022/12/03 06:25:14;;;;;;;11.02;6.70;;;;;;;;;;5090923;27;20384;-55
2022/12/03 06:27:40;;;;;;;11.73;6.88;;;;;;;;;;5092733;28;20501;-55
2022/12/03 06:30:07;;;;;;;12.80;7.38;;;;;;;;;;5098452;27;20103;-55
2022/12/03 06:32:33;;;;;;;12.20;7.18;;;;;;;;;;5131469;27;20391;-54
2022/12/03 06:34:59;;;;;;;13.02;7.03;;;;;;;;;;5095404;28;20082;-55
2022/12/03 06:37:25;;;;;;;12.30;6.70;;;;;;;;;;5109521;27;20485;-55
2022/12/03 06:39:51;;;;;;;12.23;6.93;;;;;;;;;;5091407;28;20024;-55
2022/12/03 06:42:17;;;;;;;11.68;6.63;;;;;;;;;;5104211;28;20605;-55
2022/12/03 06:44:43;;;;;;;15.20;8.43;;;;;;;;;;5103208;28;20020;-55
2022/12/03 06:47:09;;;;;;;16.50;8.50;;;;;;;;;;5109474;28;20499;-54
2022/12/03 06:49:35;;;;;;;17.60;9.13;;;;;;;;;;5119231;28;20024;-54
2022/12/03 06:52:01;;;;;;;22.85;12.00;;;;;;;;;;5109470;28;20111;-56
2022/12/03 06:54:27;;;;;;;19.92;10.60;;;;;;;;;;5109601;28;20420;-55
2022/12/03 06:56:53;;;;;;;17.80;10.32;;;;;;;;;;5095090;28;20087;-55
2022/12/03 06:59:19;;;;;;;16.35;9.60;;;;;;;;;;5091123;28;20484;-54
2022/12/03 07:01:45;;;;;;;19.38;10.20;;;;;;;;;;5090882;28;20032;-54
2022/12/03 07:04:11;;;;;;;19.40;10.15;;;;;;;;;;5091149;28;20028;-55
2022/12/03 07:06:37;;;;;;;21.92;11.48;;;;;;;;;;5104410;28;20023;-55
2022/12/03 07:09:03;;;;;;;19.92;11.82;;;;;;;;;;5110315;28;20031;-55
2022/12/03 07:11:38;;;;;;;22.02;11.68;;;;;;;;;;5110739;28;20154;-54
2022/12/03 07:14:05;;;;;;;17.33;10.40;;;;;;;;;;5108488;28;20060;-55
2022/12/03 07:16:32;;;;;;;20.83;10.68;;;;;;;;;;5102381;28;20122;-54
2022/12/03 07:18:58;;;;;;;15.90;9.43;;;;;;;;;;5090792;28;20024;-54
2022/12/03 07:21:24;;;;;;;15.95;8.88;;;;;;;;;;5090831;28;20038;-54
2022/12/03 07:23:50;;;;;;;15.02;9.30;;;;;;;;;;5103358;28;20107;-55
2022/12/03 07:26:16;;;;;;;16.48;9.15;;;;;;;;;;5107548;28;20546;-55
2022/12/03 07:28:42;;;;;;;13.68;8.93;;;;;;;;;;5108579;28;20020;-55
2022/12/03 07:31:08;;;;;;;18.30;9.77;;;;;;;;;;5103082;28;20032;-55
2022/12/03 07:33:34;;;;;;;16.73;9.10;;;;;;;;;;5112349;28;20088;-54
2022/12/03 07:36:00;;;;;;;12.10;7.70;;;;;;;;;;5098723;28;20075;-55
2022/12/03 07:38:26;;;;;;;15.07;8.45;;;;;;;;;;5104148;28;20024;-55
2022/12/03 07:40:52;;;;;;;16.27;9.20;;;;;;;;;;5105313;28;20032;-56
2022/12/03 07:43:18;;;;;;;15.80;9.10;;;;;;;;;;5108882;28;20111;-54
2022/12/03 07:45:44;;;;;;;15.57;8.95;;;;;;;;;;5106106;28;20111;-54
2022/12/03 07:48:10;;;;;;;14.82;9.05;;;;;;;;;;5106325;28;20115;-54
2022/12/03 07:50:36;;;;;;;14.55;8.60;;;;;;;;;;5113006;28;20027;-54
2022/12/03 07:53:02;;;;;;;15.68;9.18;;;;;;;;;;5112512;28;20020;-54
2022/12/03 07:55:28;;;;;;;15.05;8.85;;;;;;;;;;5092867;28;20024;-54
2022/12/03 07:57:54;;;;;;;15.07;8.10;;;;;;;;;;5093119;28;20068;-55
2022/12/03 08:00:20;;;;;;;14.35;8.02;;;;;;;;;;5094773;28;20016;-55
2022/12/03 08:02:46;;;;;;;13.27;8.15;;;;;;;;;;5113102;28;20047;-55
2022/12/03 08:05:12;;;;;;;14.55;7.97;;;;;;;;;;5111965;28;20051;-55
2022/12/03 08:07:38;;;;;;;14.20;8.05;;;;;;;;;;5113091;28;20096;-55
2022/12/03 08:10:04;;;;;;;14.38;8.55;;;;;;;;;;5106899;28;20016;-55
2022/12/03 08:12:41;;;;;;;14.65;8.32;;;;;;;;;;5109021;28;20039;-55
2022/12/03 08:15:10;;;;;;;12.93;7.47;;;;;;;;;;5099184;28;20493;-55
2022/12/03 08:17:39;;;;;;;13.30;8.02;;;;;;;;;;5093890;28;20059;-56
2022/12/03 08:20:11;;;;;;;17.33;8.93;;;;;;;;;;5094413;28;20530;-56
2022/12/03 08:22:37;;;;;;;17.95;9.20;;;;;;;;;;5091994;28;20082;-55
2022/12/03 08:25:05;;;;;;;17.42;9.85;;;;;;;;;;5099060;28;20491;-55
2022/12/03 08:27:31;;;;;;;16.92;10.05;;;;;;;;;;5093624;28;20027;-55
2022/12/03 08:30:00;;;;;;;18.77;10.50;;;;;;;;;;5111831;28;20426;-54
2022/12/03 08:32:27;;;;;;;17.55;10.23;;;;;;;;;;5109391;28;20023;-55
2022/12/03 08:34:53;;;;;;;16.95;9.35;;;;;;;;;;5091602;28;20028;-55
2022/12/03 08:37:19;;;;;;;15.20;8.48;;;;;;;;;;5092309;28;20024;-55
2022/12/03 08:39:47;;;;;;;17.75;9.68;;;;;;;;;;5091188;28;20036;-56
2022/12/03 08:45:21;;;;;;;18.33;9.88;;;;;;;;;;5091065;28;20118;-55
2022/12/03 08:47:46;;;;;;;;;;;;;;;;;;5091163;28;20032;-55
2022/12/03 08:50:22;;;;;;;15.25;9.05;;;;;;;;;;5109172;28;19919;-55
2022/12/03 08:52:47;;;;;;;16.58;8.60;;;;;;;;;;5111148;28;20035;-55
2022/12/03 08:55:36;;;;;;;16.60;9.18;;;;;;;;;;5110320;28;20403;-56
2022/12/03 08:58:25;;;;;;;17.92;9.77;;;;;;;;;;5096901;28;20034;-56
2022/12/03 09:00:53;;;;;;;16.23;8.50;;;;;;;;;;5093610;28;20426;-56
2022/12/03 09:03:19;;;;;;;15.02;7.90;;;;;;;;;;5112134;28;20027;-56
2022/12/03 09:05:45;;;;;;;19.88;9.48;;;;;;;;;;5104747;28;20387;-56
2022/12/03 09:08:11;;;;;;;19.33;9.43;;;;;;;;;;5101558;28;20028;-56
2022/12/03 09:10:37;;;;;;;18.02;9.32;;;;;;;;;;5103979;28;20019;-56
2022/12/03 09:13:03;;;;;;;18.65;9.75;;;;;;;;;;5081094;28;20567;-56
2022/12/03 09:15:29;;;;;;;21.88;10.73;;;;;;;;;;5110914;28;20032;-56
2022/12/03 09:17:55;;;;;;;18.60;9.55;;;;;;;;;;5111075;28;20564;-56
2022/12/03 09:20:21;;;;;;;21.05;10.38;;;;;;;;;;5095973;28;20044;-56
2022/12/03 09:22:47;;;;;;;20.33;10.52;;;;;;;;;;5099579;28;20024;-56
2022/12/03 09:25:13;;;;;;;18.42;10.55;;;;;;;;;;5111152;28;20019;-57
2022/12/03 09:27:39;;;;;;;21.70;11.63;;;;;;;;;;5110584;28;20030;-57
2022/12/03 09:30:06;;;;;;;22.77;12.85;;;;;;;;;;5111148;28;20020;-57
2022/12/03 09:32:32;;;;;;;20.48;11.95;;;;;;;;;;5110834;28;20031;-56
2022/12/03 09:34:58;;;;;;;20.05;11.98;;;;;;;;;;5110515;28;20099;-56
2022/12/03 09:37:24;;;;;;;20.73;12.23;;;;;;;;;;5111449;28;20115;-57
2022/12/03 09:39:50;;;;;;;19.45;10.98;;;;;;;;;;5110702;28;20027;-56
2022/12/03 09:42:16;;;;;;;23.52;12.38;;;;;;;;;;5110743;28;20036;-57
2022/12/03 09:44:42;;;;;;;25.08;14.85;;;;;;;;;;5096532;28;20028;-57
2022/12/03 09:47:08;;;;;;;27.00;14.10;;;;;;;;;;5108919;28;20036;-57
2022/12/03 09:49:35;;;;;;;22.83;12.68;;;;;;;;;;5110060;28;20011;-57
2022/12/03 09:52:02;;;;;;;21.27;12.35;;;;;;;;;;5098714;28;20039;-56
2022/12/03 09:54:29;;;;;;;19.35;11.35;;;;;;;;;;5087440;28;20150;-57
2022/12/03 09:56:56;;;;;;;21.67;12.48;;;;;;;;;;5089717;28;20036;-57
2022/12/03 09:59:25;;;;;;;25.80;13.73;;;;;;;;;;5089940;28;20073;-56
2022/12/03 10:01:51;;;;;;;26.98;13.90;;;;;;;;;;5089003;28;20372;-56
2022/12/03 10:04:18;;;;;;;25.98;13.15;;;;;;;;;;5088821;28;20650;-56
2022/12/03 10:06:44;;;;;;;25.88;12.20;;;;;;;;;;5088905;28;20073;-57
2022/12/03 10:09:11;;;;;;;23.60;12.00;;;;;;;;;;5088260;28;20357;-56
2022/12/03 10:11:38;;;;;;;22.48;11.70;;;;;;;;;;5089453;28;20039;-56
2022/12/03 10:14:04;;;;;;;27.48;13.20;;;;;;;;;;5107415;28;20042;-57
2022/12/03 10:16:30;;;;;;;26.17;12.15;;;;;;;;;;5111286;28;20110;-56
2022/12/03 10:18:59;;;;;;;28.08;13.90;;;;;;;;;;5111119;28;20099;-57
2022/12/03 10:21:27;;;;;;;28.05;13.77;;;;;;;;;;5110873;28;20039;-57
2022/12/03 10:24:11;;;;;;;28.23;14.15;;;;;;;;;;5110793;28;20020;-57
2022/12/03 10:26:39;;;;;;;36.63;17.05;;;;;;;;;;5107268;28;20020;-56
2022/12/03 10:29:11;;;;;;;37.50;17.58;;;;;;;;;;5111223;28;20020;-56
2022/12/03 10:31:38;;;;;;;43.20;19.23;;;;;;;;;;5111780;28;20467;-55
2022/12/03 10:34:04;;;;;;;50.95;22.63;;;;;;;;;;5111128;28;20556;-56
2022/12/03 10:36:30;;;;;;;46.83;22.08;;;;;;;;;;5110646;28;20028;-56
2022/12/03 10:39:05;;;;;;;46.83;22.08;;;;;;;;;;5110640;28;20122;-56
2022/12/03 10:41:31;;;;;;;42.15;19.58;;;;;;;;;;5110762;28;20031;-56
2022/12/03 10:44:12;;;;;;;42.45;19.58;;;;;;;;;;5110535;28;20542;-56
2022/12/03 10:46:38;;;;;;;32.45;16.33;;;;;;;;;;5110713;28;20543;-56
2022/12/03 10:49:09;;;;;;;31.80;15.50;;;;;;;;;;5111005;28;20016;-56
2022/12/03 10:51:35;;;;;;;29.50;13.95;;;;;;;;;;5110960;28;20453;-56
2022/12/03 10:54:02;;;;;;;32.20;15.38;;;;;;;;;;5110877;28;20099;-56
2022/12/03 10:56:28;;;;;;;24.63;12.35;;;;;;;;;;5110441;28;20027;-55
2022/12/03 10:58:54;;;;;;;26.08;13.52;;;;;;;;;;5110581;28;20503;-56
2022/12/03 11:01:22;;;;;;;22.35;11.38;;;;;;;;;;5110346;28;20035;-55
2022/12/03 11:03:48;;;;;;;22.08;11.68;;;;;;;;;;5110392;28;20517;-56
2022/12/03 11:06:16;;;;;;;19.48;10.30;;;;;;;;;;5113330;28;20111;-56
2022/12/03 11:08:43;;;;;;;19.27;10.43;;;;;;;;;;5114423;28;20019;-56
2022/12/03 11:11:19;;;;;;;20.27;10.60;;;;;;;;;;5114654;28;20110;-55
2022/12/03 11:13:45;;;;;;;21.08;11.23;;;;;;;;;;5094152;28;20507;-55
2022/12/03 11:16:11;;;;;;;19.67;9.85;;;;;;;;;;5094142;28;20508;-56
2022/12/03 11:18:37;;;;;;;17.95;9.50;;;;;;;;;;5094029;28;20074;-56
2022/12/03 11:21:06;;;;;;;17.48;9.52;;;;;;;;;;5094198;28;20406;-56
2022/12/03 11:23:45;;;;;;;15.75;9.25;;;;;;;;;;5094209;28;20077;-56
2022/12/03 11:26:26;;;;;;;14.68;8.77;;;;;;;;;;5093901;28;20395;-56
2022/12/03 11:28:53;;;;;;;15.60;8.90;;;;;;;;;;5093956;28;20091;-56
2022/12/03 11:31:38;;;;;;;15.13;8.52;;;;;;;;;;5093862;28;20043;-56
2022/12/03 11:34:16;;;;;;;14.52;8.13;;;;;;;;;;5094115;28;20030;-56
2022/12/03 11:37:01;;;;;;;18.02;9.27;;;;;;;;;;5093705;28;20380;-56
2022/12/03 11:39:45;;;;;;;13.68;7.95;;;;;;;;;;5082193;28;20532;-56
2022/12/03 11:42:11;;;;;;;;;;;;;;;;;;5088318;28;20031;-56
2022/12/03 11:44:38;;;;;;;18.75;10.05;;;;;;;;;;5075423;28;19904;-56
2022/12/03 11:47:12;;;;;;;18.70;9.80;;;;;;;;;;5092792;28;20476;-56
2022/12/03 11:49:44;;;;;;;18.23;9.70;;;;;;;;;;5094782;28;20491;-54
2022/12/03 11:52:24;;;;;;;19.27;10.57;;;;;;;;;;5077406;28;20377;-56
2022/12/03 11:54:52;;;;;;;18.58;9.10;;;;;;;;;;5073698;28;20028;-56
2022/12/03 11:57:24;;;;;;;17.13;8.88;;;;;;;;;;5084357;28;20027;-56
2022/12/03 12:00:04;;;;;;;17.38;9.23;;;;;;;;;;5090029;28;20065;-56
2022/12/03 12:02:30;;;;;;;16.10;8.27;;;;;;;;;;5093843;28;20024;-56
2022/12/03 12:04:56;;;;;;;16.17;8.48;;;;;;;;;;5086184;28;20384;-57
2022/12/03 12:07:35;;;;;;;18.13;9.02;;;;;;;;;;5073276;28;20028;-56
2022/12/03 12:10:02;;;;;;;13.43;8.52;;;;;;;;;;5065202;28;20840;-57
2022/12/03 12:12:30;;;;;;;14.05;7.78;;;;;;;;;;5097224;28;20066;-56
2022/12/03 12:14:56;;;;;;;13.02;7.72;;;;;;;;;;5109962;28;20280;-56
2022/12/03 12:17:33;;;;;;;14.65;7.80;;;;;;;;;;5095898;28;20032;-57
2022/12/03 12:20:11;;;;;;;13.07;7.88;;;;;;;;;;5109468;28;20032;-57
2022/12/03 12:22:38;;;;;;;12.45;7.47;;;;;;;;;;5101031;28;20028;-57
2022/12/03 12:25:05;;;;;;;14.10;8.00;;;;;;;;;;5102950;28;20024;-57
2022/12/03 12:27:44;;;;;;;14.98;7.65;;;;;;;;;;5109996;28;20026;-57
2022/12/03 12:30:14;;;;;;;12.85;7.85;;;;;;;;;;5093010;28;20038;-57
2022/12/03 12:32:40;;;;;;;13.25;7.55;;;;;;;;;;5081104;28;20032;-56
2022/12/03 12:35:15;;;;;;;14.30;7.35;;;;;;;;;;5081827;28;20025;-57
2022/12/03 12:37:46;;;;;;;12.95;7.57;;;;;;;;;;5100070;28;20059;-56
2022/12/03 12:40:14;;;;;;;13.80;7.97;;;;;;;;;;5079684;28;20092;-56
2022/12/03 12:42:49;;;;;;;15.50;7.78;;;;;;;;;;5100628;28;20119;-57
2022/12/03 12:45:16;;;;;;;14.75;8.55;;;;;;;;;;5106463;28;20024;-57
2022/12/03 12:47:46;;;;;;;16.05;8.02;;;;;;;;;;5090868;28;20016;-56
2022/12/03 12:50:13;;;;;;;13.27;7.68;;;;;;;;;;5093666;28;20070;-57
2022/12/03 12:52:47;;;;;;;17.45;8.88;;;;;;;;;;5099138;28;20020;-57
2022/12/03 12:55:15;;;;;;;14.75;8.38;;;;;;;;;;5099527;28;20032;-57
2022/12/03 12:57:41;;;;;;;15.50;8.30;;;;;;;;;;5098186;28;20146;-57
2022/12/03 13:00:07;;;;;;;14.88;8.20;;;;;;;;;;5097322;28;20166;-57
2022/12/03 13:02:54;;;;;;;14.30;7.85;;;;;;;;;;5104066;27;20036;-57
2022/12/03 13:05:20;;;;;;;16.00;8.63;;;;;;;;;;5104550;28;20020;-57
2022/12/03 13:07:46;;;;;;;14.50;8.20;;;;;;;;;;5111431;28;20131;-57
2022/12/03 13:10:31;;;;;;;16.30;8.23;;;;;;;;;;5093501;28;20030;-57
2022/12/03 13:12:58;;;;;;;14.45;7.93;;;;;;;;;;5100423;28;20043;-56
2022/12/03 13:15:43;;;;;;;14.98;7.82;;;;;;;;;;5101260;28;20042;-56
2022/12/03 13:18:18;;;;;;;15.20;7.88;;;;;;;;;;5097465;28;20414;-56
2022/12/03 13:20:44;;;;;;;16.40;8.35;;;;;;;;;;5105148;28;20085;-56
2022/12/03 13:23:25;;;;;;;14.85;8.20;;;;;;;;;;5106089;28;20523;-56
2022/12/03 13:25:51;;;;;;;15.45;8.52;;;;;;;;;;5096758;28;20039;-56
2022/12/03 13:28:18;;;;;;;14.57;8.18;;;;;;;;;;5102948;28;20027;-56
2022/12/03 13:30:44;;;;;;;14.45;7.85;;;;;;;;;;5096896;28;20027;-56
2022/12/03 13:33:25;;;;;;;16.00;8.15;;;;;;;;;;5103239;28;20031;-56
2022/12/03 13:35:52;;;;;;;15.50;8.35;;;;;;;;;;5101606;28;20035;-55
2022/12/03 13:38:18;;;;;;;13.48;7.88;;;;;;;;;;5093535;28;20170;-56
2022/12/03 13:40:45;;;;;;;15.95;8.38;;;;;;;;;;5098221;28;20046;-56
2022/12/03 13:43:13;;;;;;;12.18;6.82;;;;;;;;;;5103537;28;20399;-56
2022/12/03 13:45:42;;;;;;;15.85;8.25;;;;;;;;;;5089892;28;20024;-57
2022/12/03 13:48:23;;;;;;;14.77;8.27;;;;;;;;;;5090466;27;20543;-56
2022/12/03 13:50:51;;;;;;;13.77;8.27;;;;;;;;;;5102516;27;20119;-57
2022/12/03 13:53:27;;;;;;;14.02;8.10;;;;;;;;;;5101242;28;20027;-57
2022/12/03 13:55:56;;;;;;;13.30;7.35;;;;;;;;;;5107578;28;20035;-57
2022/12/03 13:58:22;;;;;;;13.02;7.57;;;;;;;;;;5105366;28;20402;-56
2022/12/03 14:00:48;;;;;;;13.40;8.02;;;;;;;;;;5126281;27;20116;-57
2022/12/03 14:03:14;;;;;;;14.60;7.55;;;;;;;;;;5130239;27;20019;-57
2022/12/03 14:05:40;;;;;;;16.33;8.23;;;;;;;;;;5130318;27;20076;-57
2022/12/03 14:08:06;;;;;;;12.55;7.13;;;;;;;;;;5111544;27;20024;-57
2022/12/03 14:10:32;;;;;;;14.48;7.90;;;;;;;;;;5100310;28;20028;-57
2022/12/03 14:12:58;;;;;;;14.23;7.32;;;;;;;;;;5089414;28;20107;-57
2022/12/03 14:15:25;;;;;;;12.40;7.50;;;;;;;;;;5089253;28;20531;-57
2022/12/03 14:17:51;;;;;;;13.85;7.72;;;;;;;;;;5090043;28;20081;-57
2022/12/03 14:20:18;;;;;;;14.30;7.88;;;;;;;;;;5104774;28;20031;-57
2022/12/03 14:22:44;;;;;;;14.93;7.78;;;;;;;;;;5109532;28;20100;-56
2022/12/03 14:25:10;;;;;;;14.48;7.57;;;;;;;;;;5099043;28;20063;-56
2022/12/03 14:27:36;;;;;;;12.63;7.03;;;;;;;;;;5109926;28;20420;-56
2022/12/03 14:30:02;;;;;;;13.77;7.72;;;;;;;;;;5096956;28;20073;-56
2022/12/03 14:32:28;;;;;;;13.35;7.30;;;;;;;;;;5089722;28;20068;-55
2022/12/03 14:34:54;;;;;;;12.20;7.15;;;;;;;;;;5089783;28;20508;-56
2022/12/03 14:37:20;;;;;;;12.88;7.38;;;;;;;;;;5087800;28;20031;-58
2022/12/03 14:39:47;;;;;;;11.18;5.90;;;;;;;;;;5086197;28;20035;-57
2022/12/03 14:42:13;;;;;;;10.60;6.60;;;;;;;;;;5087918;28;20024;-57
2022/12/03 14:44:39;;;;;;;11.77;6.85;;;;;;;;;;5087419;28;20043;-57
2022/12/03 14:47:05;;;;;;;12.07;6.93;;;;;;;;;;5069511;28;20107;-56
2022/12/03 14:49:31;;;;;;;11.45;6.70;;;;;;;;;;5087294;28;20531;-57
2022/12/03 14:51:57;;;;;;;12.30;7.30;;;;;;;;;;5078846;28;20038;-58
2022/12/03 14:54:23;;;;;;;10.93;6.47;;;;;;;;;;5102971;28;20027;-56
2022/12/03 14:56:49;;;;;;;12.70;7.25;;;;;;;;;;5091175;28;20028;-55
2022/12/03 14:59:15;;;;;;;11.25;6.97;;;;;;;;;;5106659;28;20066;-56
2022/12/03 15:01:41;;;;;;;11.27;6.57;;;;;;;;;;5092615;28;20054;-57
2022/12/03 15:04:07;;;;;;;10.93;6.13;;;;;;;;;;5087322;28;20029;-57
2022/12/03 15:06:34;;;;;;;10.77;6.18;;;;;;;;;;5087203;28;20016;-56
2022/12/03 15:09:00;;;;;;;10.52;6.28;;;;;;;;;;5090633;28;20109;-57
2022/12/03 15:11:26;;;;;;;10.88;6.50;;;;;;;;;;5097782;28;20515;-57
2022/12/03 15:13:52;;;;;;;10.75;6.72;;;;;;;;;;5089861;28;20035;-57
2022/12/03 15:16:18;;;;;;;13.80;8.13;;;;;;;;;;5069237;28;20519;-57
2022/12/03 15:18:44;;;;;;;11.30;6.78;;;;;;;;;;5086450;28;20067;-56
2022/12/03 15:21:10;;;;;;;12.43;6.95;;;;;;;;;;5068930;28;20028;-57
2022/12/03 15:23:36;;;;;;;14.07;7.38;;;;;;;;;;5068378;28;20498;-57
2022/12/03 15:26:02;;;;;;;10.73;6.68;;;;;;;;;;5069345;28;20020;-56
2022/12/03 15:28:28;;;;;;;10.70;6.13;;;;;;;;;;5086945;28;20031;-56
2022/12/03 15:30:54;;;;;;;11.18;6.65;;;;;;;;;;5087700;28;20146;-57
2022/12/03 15:33:20;;;;;;;12.75;7.38;;;;;;;;;;5086750;28;20103;-57
2022/12/03 15:35:46;;;;;;;12.05;6.60;;;;;;;;;;5087107;28;20398;-56
2022/12/03 15:38:12;;;;;;;10.98;5.85;;;;;;;;;;5097440;28;20066;-57
2022/12/03 15:40:39;;;;;;;13.20;7.03;;;;;;;;;;5088909;28;20517;-56
2022/12/03 15:43:05;;;;;;;11.85;6.80;;;;;;;;;;5107391;28;20463;-56
2022/12/03 15:45:31;;;;;;;11.27;6.65;;;;;;;;;;5088719;28;20100;-56
2022/12/03 15:47:57;;;;;;;13.23;7.57;;;;;;;;;;5106158;28;20062;-57
2022/12/03 15:50:23;;;;;;;13.07;6.75;;;;;;;;;;5107956;28;20464;-55
2022/12/03 15:52:49;;;;;;;12.93;6.97;;;;;;;;;;5109183;28;20031;-57
2022/12/03 15:55:15;;;;;;;13.02;7.40;;;;;;;;;;5111172;27;20034;-56
2022/12/03 15:57:41;;;;;;;12.82;7.35;;;;;;;;;;5097802;28;20063;-56
2022/12/03 16:00:08;;;;;;;12.55;6.78;;;;;;;;;;5096651;28;20019;-58
2022/12/03 16:02:35;;;;;;;12.40;6.65;;;;;;;;;;5105523;27;20092;-56
2022/12/03 16:05:02;;;;;;;12.13;6.75;;;;;;;;;;5106586;28;20031;-56
2022/12/03 16:07:27;;;;;;;11.00;6.43;;;;;;;;;;5110735;28;20107;-56
2022/12/03 16:09:54;;;;;;;11.70;6.78;;;;;;;;;;5092931;28;20107;-56
2022/12/03 16:12:20;;;;;;;10.20;5.97;;;;;;;;;;5092043;28;20479;-55
2022/12/03 16:14:46;;;;;;;13.13;7.22;;;;;;;;;;5094783;28;20107;-58
2022/12/03 16:17:12;;;;;;;13.20;7.00;;;;;;;;;;5103802;28;20036;-57
2022/12/03 16:19:38;;;;;;;12.05;7.18;;;;;;;;;;5102017;27;20036;-57
2022/12/03 16:22:04;;;;;;;11.80;6.80;;;;;;;;;;5133002;27;20019;-58
2022/12/03 16:24:30;;;;;;;13.77;7.35;;;;;;;;;;5123150;27;20023;-57
2022/12/03 16:26:56;;;;;;;12.15;7.15;;;;;;;;;;5106357;28;20056;-58
2022/12/03 16:29:22;;;;;;;11.52;6.45;;;;;;;;;;5107767;28;20030;-57
2022/12/03 16:31:48;;;;;;;15.20;8.02;;;;;;;;;;5111968;28;20066;-58
2022/12/03 16:34:14;;;;;;;12.63;7.18;;;;;;;;;;5110590;28;20035;-57
2022/12/03 16:36:40;;;;;;;14.02;7.95;;;;;;;;;;5112336;28;20072;-58
2022/12/03 16:39:06;;;;;;;14.68;7.65;;;;;;;;;;5111900;28;20032;-57
2022/12/03 16:41:32;;;;;;;13.18;7.38;;;;;;;;;;5112048;28;20024;-57
2022/12/03 16:44:01;;;;;;;13.35;7.25;;;;;;;;;;5112505;28;20023;-58
2022/12/03 16:46:27;;;;;;;16.95;9.32;;;;;;;;;;5108887;27;20023;-57
2022/12/03 16:49:08;;;;;;;17.08;9.27;;;;;;;;;;5066395;28;20055;-56
2022/12/03 16:51:34;;;;;;;18.25;9.30;;;;;;;;;;5090888;28;20024;-56
2022/12/03 16:54:00;;;;;;;20.08;9.65;;;;;;;;;;5106432;28;20036;-57
2022/12/03 16:56:25;;;;;;;18.75;9.02;;;;;;;;;;5098877;28;20045;-56
2022/12/03 16:58:51;;;;;;;20.13;10.23;;;;;;;;;;5108906;28;20109;-57
2022/12/03 17:01:17;;;;;;;21.38;10.38;;;;;;;;;;5111319;27;20539;-57
2022/12/03 17:03:43;;;;;;;20.60;9.98;;;;;;;;;;5108014;27;20020;-57
2022/12/03 17:06:10;;;;;;;17.85;9.82;;;;;;;;;;5110310;28;20097;-57
2022/12/03 17:08:36;;;;;;;19.30;9.68;;;;;;;;;;5119035;27;20024;-57
2022/12/03 17:11:02;;;;;;;22.05;9.88;;;;;;;;;;5104528;27;20081;-56
2022/12/03 17:13:28;;;;;;;16.58;8.68;;;;;;;;;;5104101;28;20039;-57
2022/12/03 17:15:54;;;;;;;17.48;8.50;;;;;;;;;;5104191;28;20031;-57
2022/12/03 17:18:21;;;;;;;20.55;9.80;;;;;;;;;;5106413;28;20031;-57
2022/12/03 17:20:47;;;;;;;16.13;9.00;;;;;;;;;;5105228;28;20031;-57
2022/12/03 17:23:13;;;;;;;15.27;8.32;;;;;;;;;;5108953;27;20380;-57
2022/12/03 17:25:39;;;;;;;18.95;9.48;;;;;;;;;;5106942;28;20043;-56
2022/12/03 17:28:05;;;;;;;18.33;9.43;;;;;;;;;;5108814;27;20542;-56
2022/12/03 17:30:31;;;;;;;19.67;10.00;;;;;;;;;;5107032;28;20069;-57
2022/12/03 17:32:57;;;;;;;15.52;8.50;;;;;;;;;;5105478;27;20024;-57
2022/12/03 17:35:23;;;;;;;17.67;9.02;;;;;;;;;;5107986;28;20076;-57
2022/12/03 17:37:49;;;;;;;16.85;8.85;;;;;;;;;;5107513;28;20055;-57
2022/12/03 17:40:16;;;;;;;15.30;8.32;;;;;;;;;;5107329;28;20122;-57
2022/12/03 17:42:42;;;;;;;16.65;8.48;;;;;;;;;;5105798;28;20394;-57
2022/12/03 17:45:08;;;;;;;17.27;8.48;;;;;;;;;;5106259;28;20371;-57
2022/12/03 17:47:34;;;;;;;16.05;8.27;;;;;;;;;;5106254;28;20061;-57
2022/12/03 17:50:00;;;;;;;16.50;8.95;;;;;;;;;;5107704;28;20047;-57
2022/12/03 17:52:26;;;;;;;17.20;9.18;;;;;;;;;;5106690;28;20031;-57
2022/12/03 17:54:52;;;;;;;19.05;9.30;;;;;;;;;;5105033;28;20024;-57
2022/12/03 17:57:18;;;;;;;23.95;11.27;;;;;;;;;;5108282;27;20031;-57
2022/12/03 17:59:44;;;;;;;21.58;10.93;;;;;;;;;;5107601;28;20069;-57
2022/12/03 18:02:10;;;;;;;23.65;11.40;;;;;;;;;;5105707;28;20036;-56
2022/12/03 18:04:36;;;;;;;20.00;11.10;;;;;;;;;;5098194;28;20035;-56
2022/12/03 18:07:02;;;;;;;22.48;10.95;;;;;;;;;;5104748;27;20039;-56
2022/12/03 18:09:28;;;;;;;22.42;10.95;;;;;;;;;;5104592;28;20042;-56
2022/12/03 18:11:54;;;;;;;20.80;10.50;;;;;;;;;;5096767;28;20027;-56
2022/12/03 18:14:20;;;;;;;20.38;10.23;;;;;;;;;;5093047;28;20525;-56
2022/12/03 18:16:46;;;;;;;19.13;9.30;;;;;;;;;;5096882;28;20106;-56
2022/12/03 18:19:12;;;;;;;22.52;10.70;;;;;;;;;;5091992;28;20047;-56
2022/12/03 18:21:38;;;;;;;22.70;10.30;;;;;;;;;;5088051;28;20107;-56
2022/12/03 18:24:04;;;;;;;21.58;11.25;;;;;;;;;;5082989;28;20063;-55
2022/12/03 18:26:30;;;;;;;25.20;11.57;;;;;;;;;;5079039;28;20035;-56
2022/12/03 18:28:56;;;;;;;28.02;12.38;;;;;;;;;;5073926;28;20035;-56
2022/12/03 18:31:22;;;;;;;29.42;12.50;;;;;;;;;;5076197;28;20050;-57
2022/12/03 18:33:49;;;;;;;26.52;11.80;;;;;;;;;;5068980;28;20033;-57
2022/12/03 18:36:19;;;;;;;24.05;11.25;;;;;;;;;;5050731;28;20067;-56
2022/12/03 18:38:49;;;;;;;22.70;11.13;;;;;;;;;;5068355;28;20083;-58
2022/12/03 18:41:15;;;;;;;25.50;12.45;;;;;;;;;;5083854;28;20027;-57
2022/12/03 18:43:42;;;;;;;25.30;11.05;;;;;;;;;;5061042;28;20104;-56
2022/12/03 18:46:12;;;;;;;20.13;10.38;;;;;;;;;;5071128;28;20070;-56
2022/12/03 18:48:38;;;;;;;20.48;10.40;;;;;;;;;;5073741;28;20039;-57
2022/12/03 18:51:08;;;;;;;17.58;8.57;;;;;;;;;;5087485;28;20036;-57
2022/12/03 18:53:34;;;;;;;20.42;8.68;;;;;;;;;;5084724;28;20048;-57
2022/12/03 18:56:00;;;;;;;17.90;9.07;;;;;;;;;;5068230;28;20064;-57
2022/12/03 18:58:26;;;;;;;20.40;10.73;;;;;;;;;;5077905;28;20044;-57
2022/12/03 19:00:52;;;;;;;18.08;9.70;;;;;;;;;;5074993;28;20105;-56
2022/12/03 19:03:18;;;;;;;22.67;11.40;;;;;;;;;;5070249;28;20054;-56
2022/12/03 19:05:44;;;;;;;16.67;8.98;;;;;;;;;;5057455;28;20358;-56
2022/12/03 19:08:13;;;;;;;17.52;8.50;;;;;;;;;;5059884;28;20020;-56
2022/12/03 19:10:39;;;;;;;17.52;8.77;;;;;;;;;;5070588;28;20021;-58
2022/12/03 19:13:05;;;;;;;17.50;9.27;;;;;;;;;;5097552;28;20032;-59
2022/12/03 19:15:31;;;;;;;20.75;9.82;;;;;;;;;;5102618;28;20103;-59
2022/12/03 19:17:57;;;;;;;17.92;9.13;;;;;;;;;;5094152;28;20567;-59
2022/12/03 19:20:23;;;;;;;20.95;10.70;;;;;;;;;;5095112;28;20091;-59
2022/12/03 19:22:49;;;;;;;16.67;9.38;;;;;;;;;;5092760;28;20080;-59
2022/12/03 19:25:15;;;;;;;17.20;9.50;;;;;;;;;;5098177;28;20039;-59
2022/12/03 19:27:41;;;;;;;15.90;8.98;;;;;;;;;;5099499;27;20459;-59
2022/12/03 19:30:07;;;;;;;17.02;9.13;;;;;;;;;;5086864;28;20527;-59
2022/12/03 19:32:34;;;;;;;15.27;8.40;;;;;;;;;;5077596;28;20174;-59
2022/12/03 19:35:03;;;;;;;16.85;9.38;;;;;;;;;;5103184;28;20119;-59
2022/12/03 19:37:31;;;;;;;16.00;9.23;;;;;;;;;;5100910;27;20078;-59
2022/12/03 19:39:57;;;;;;;16.20;8.98;;;;;;;;;;5089487;28;20023;-59